Time;durP1;ratioP1;P1;durP2;ratioP2;P2;SDS_P1;SDS_P2;PMS_P1;PMS_P2;Temp;Humidity;BMP_temperature;BMP_pressure;BME280_temperature;BME280_humidity;BME280_pressure;Samples;Min_cycle;Max_cycle;Signal;HPM_P1;HPM_P2
2022/05/18 00:00:32;;;;;;;1.67;0.95;;;;;;;;;;5016229;28;20227;-78
2022/05/18 00:03:03;;;;;;;1.00;1.00;;;;;;;;;;5016260;28;20211;-79
2022/05/18 00:05:31;;;;;;;0.85;0.82;;;;;;;;;;5017044;28;20205;-79
2022/05/18 00:08:00;;;;;;;0.50;0.50;;;;;;;;;;5015659;28;20207;-79
2022/05/18 00:10:27;;;;;;;0.75;0.75;;;;;;;;;;5016494;28;20223;-77
2022/05/18 00:12:55;;;;;;;0.75;0.75;;;;;;;;;;5016035;28;20207;-78
2022/05/18 00:15:26;;;;;;;1.65;1.00;;;;;;;;;;5016280;28;20758;-79
2022/05/18 00:17:53;;;;;;;0.70;0.70;;;;;;;;;;5034372;28;20632;-78
2022/05/18 00:20:21;;;;;;;0.95;0.77;;;;;;;;;;5035875;28;20718;-78
2022/05/18 00:22:52;;;;;;;0.82;0.82;;;;;;;;;;5035458;28;20202;-79
2022/05/18 00:25:23;;;;;;;2.38;0.98;;;;;;;;;;5035720;28;20198;-78
2022/05/18 00:27:50;;;;;;;0.75;0.75;;;;;;;;;;5035717;28;20198;-77
2022/05/18 00:30:19;;;;;;;0.70;0.70;;;;;;;;;;5035282;28;20234;-78
2022/05/18 00:32:47;;;;;;;0.70;0.70;;;;;;;;;;5035111;28;20632;-78
2022/05/18 00:35:16;;;;;;;1.00;1.00;;;;;;;;;;5035135;28;20225;-78
2022/05/18 00:37:44;;;;;;;0.80;0.80;;;;;;;;;;5034935;28;20210;-79
2022/05/18 00:40:15;;;;;;;1.02;1.02;;;;;;;;;;5035377;28;20276;-79
2022/05/18 00:42:44;;;;;;;1.58;1.48;;;;;;;;;;5034421;28;20650;-78
2022/05/18 00:45:13;;;;;;;0.80;0.80;;;;;;;;;;5035565;28;20209;-79
2022/05/18 00:47:41;;;;;;;0.90;0.90;;;;;;;;;;5035599;28;20206;-78
2022/05/18 00:50:13;;;;;;;1.00;1.00;;;;;;;;;;5035190;28;20226;-77
2022/05/18 00:52:47;;;;;;;0.68;0.68;;;;;;;;;;5034596;28;20210;-78
2022/05/18 00:55:17;;;;;;;0.80;0.80;;;;;;;;;;5035213;28;20698;-79
2022/05/18 00:57:49;;;;;;;1.45;1.00;;;;;;;;;;5034868;28;20260;-79
2022/05/18 01:00:20;;;;;;;1.35;1.27;;;;;;;;;;5034464;28;20231;-77
2022/05/18 01:02:52;;;;;;;0.88;0.88;;;;;;;;;;5034110;28;20264;-79
2022/05/18 01:05:24;;;;;;;1.35;1.10;;;;;;;;;;5034826;28;20230;-78
2022/05/18 01:07:54;;;;;;;1.02;1.02;;;;;;;;;;5034936;28;20268;-79
2022/05/18 01:10:22;;;;;;;0.88;0.88;;;;;;;;;;5034921;28;20602;-79
2022/05/18 01:12:51;;;;;;;1.33;1.33;;;;;;;;;;5033798;28;20209;-79
2022/05/18 01:15:20;;;;;;;1.25;1.10;;;;;;;;;;5034750;28;20265;-79
2022/05/18 01:17:51;;;;;;;1.73;1.63;;;;;;;;;;5035191;28;20214;-79
2022/05/18 01:20:22;;;;;;;1.20;1.10;;;;;;;;;;5034805;28;20230;-79
2022/05/18 01:23:02;;;;;;;0.88;0.88;;;;;;;;;;5033320;28;20209;-79
2022/05/18 01:25:46;;;;;;;1.10;1.10;;;;;;;;;;5034605;28;20253;-78
2022/05/18 01:28:16;;;;;;;1.23;1.17;;;;;;;;;;5034385;28;20194;-78
2022/05/18 01:30:48;;;;;;;1.30;1.20;;;;;;;;;;5034311;28;20234;-80
2022/05/18 01:33:18;;;;;;;1.45;1.35;;;;;;;;;;5074534;22;20279;-82
2022/05/18 01:35:48;;;;;;;2.30;1.80;;;;;;;;;;5056483;28;20241;-84
2022/05/18 01:38:17;;;;;;;1.80;1.52;;;;;;;;;;5055527;28;20213;-84
2022/05/18 01:40:55;;;;;;;2.30;1.30;;;;;;;;;;5056091;28;20218;-84
2022/05/18 01:43:30;;;;;;;0.80;0.80;;;;;;;;;;5056864;28;20185;-84
2022/05/18 01:46:01;;;;;;;1.00;1.00;;;;;;;;;;5057372;28;20184;-83
2022/05/18 01:48:32;;;;;;;1.20;1.10;;;;;;;;;;5057866;28;20187;-84
2022/05/18 01:51:01;;;;;;;1.15;1.15;;;;;;;;;;5057814;28;20686;-83
2022/05/18 01:53:29;;;;;;;1.25;1.20;;;;;;;;;;5057392;28;20205;-85
2022/05/18 01:55:56;;;;;;;1.48;1.35;;;;;;;;;;5055933;28;20222;-84
2022/05/18 01:58:25;;;;;;;2.38;1.35;;;;;;;;;;5055950;28;20197;-84
2022/05/18 02:00:53;;;;;;;1.00;1.00;;;;;;;;;;5056443;28;20222;-84
2022/05/18 02:03:22;;;;;;;0.93;0.93;;;;;;;;;;5057036;28;20201;-85
2022/05/18 02:05:50;;;;;;;1.55;1.42;;;;;;;;;;5055807;28;20212;-83
2022/05/18 02:08:17;;;;;;;1.23;1.13;;;;;;;;;;5055828;28;20205;-85
2022/05/18 02:10:46;;;;;;;1.40;1.30;;;;;;;;;;5057005;28;20251;-84
2022/05/18 02:13:13;;;;;;;1.20;1.10;;;;;;;;;;5056514;28;20673;-84
2022/05/18 02:15:42;;;;;;;1.00;1.00;;;;;;;;;;5057044;28;20221;-83
2022/05/18 02:18:10;;;;;;;1.13;1.02;;;;;;;;;;5057123;28;20658;-84
2022/05/18 02:20:38;;;;;;;0.90;0.73;;;;;;;;;;5056803;28;20710;-84
2022/05/18 02:23:05;;;;;;;1.00;1.00;;;;;;;;;;5056365;28;20206;-84
2022/05/18 02:25:34;;;;;;;1.58;1.48;;;;;;;;;;5056801;28;20294;-84
2022/05/18 02:28:07;;;;;;;1.33;1.23;;;;;;;;;;5055388;28;20435;-84
2022/05/18 02:30:34;;;;;;;1.20;1.20;;;;;;;;;;5055509;28;20233;-84
2022/05/18 02:33:03;;;;;;;1.58;1.48;;;;;;;;;;5054747;28;20210;-84
2022/05/18 02:35:31;;;;;;;1.48;1.23;;;;;;;;;;5056558;28;20681;-83
2022/05/18 02:37:58;;;;;;;1.40;1.30;;;;;;;;;;5055274;28;20205;-84
2022/05/18 02:40:26;;;;;;;1.00;1.00;;;;;;;;;;5054923;28;20279;-84
2022/05/18 02:42:53;;;;;;;1.00;1.00;;;;;;;;;;5055462;28;20202;-84
2022/05/18 02:45:20;;;;;;;1.00;1.00;;;;;;;;;;5055648;28;20213;-85
2022/05/18 02:47:48;;;;;;;1.25;1.15;;;;;;;;;;5056739;28;20212;-85
2022/05/18 02:50:17;;;;;;;1.00;1.00;;;;;;;;;;5055963;28;20218;-84
2022/05/18 02:52:44;;;;;;;1.15;1.05;;;;;;;;;;5055690;28;20198;-85
2022/05/18 02:57:56;;;;;;;0.95;0.85;;;;;;;;;;5055468;28;20233;-84
2022/05/18 03:00:23;;;;;;;1.85;1.58;;;;;;;;;;5055287;28;20230;-83
2022/05/18 03:02:51;;;;;;;1.80;1.10;;;;;;;;;;5059017;28;20338;-84
2022/05/18 03:05:20;;;;;;;1.40;1.30;;;;;;;;;;5059631;28;20212;-83
2022/05/18 03:07:47;;;;;;;2.05;1.20;;;;;;;;;;5059266;28;20340;-83
2022/05/18 03:10:15;;;;;;;1.67;1.40;;;;;;;;;;5059609;28;20247;-83
2022/05/18 03:12:44;;;;;;;1.33;1.23;;;;;;;;;;5059476;28;20808;-85
2022/05/18 03:15:13;;;;;;;1.50;1.40;;;;;;;;;;5060047;28;20210;-85
2022/05/18 03:17:40;;;;;;;1.40;1.30;;;;;;;;;;5059768;28;20225;-84
2022/05/18 03:23:33;;;;;;;1.30;1.20;;;;;;;;;;5059747;28;20240;-83
2022/05/18 03:25:43;;;;;;;1.63;1.52;;;;;;;;;;5058529;28;20201;-84
2022/05/18 03:28:10;;;;;;;2.15;1.30;;;;;;;;;;5058902;28;20202;-84
2022/05/18 03:30:37;;;;;;;1.60;1.50;;;;;;;;;;5058960;28;20264;-85
2022/05/18 03:33:05;;;;;;;1.73;1.52;;;;;;;;;;5058693;28;20237;-84
2022/05/18 03:35:32;;;;;;;2.55;1.73;;;;;;;;;;5059246;28;20202;-84
2022/05/18 03:38:05;;;;;;;2.13;1.88;;;;;;;;;;5060623;28;20894;-85
2022/05/18 03:40:35;;;;;;;1.70;1.60;;;;;;;;;;5060717;28;20217;-85
2022/05/18 03:43:02;;;;;;;1.85;1.75;;;;;;;;;;5060533;28;20210;-84
2022/05/18 03:45:33;;;;;;;1.52;1.42;;;;;;;;;;5059971;28;20201;-85
2022/05/18 03:48:01;;;;;;;1.50;1.40;;;;;;;;;;5060366;28;20276;-84
2022/05/18 03:50:30;;;;;;;1.20;1.20;;;;;;;;;;5060212;28;20217;-84
2022/05/18 03:53:00;;;;;;;2.22;1.95;;;;;;;;;;5059341;28;20197;-84
2022/05/18 03:55:28;;;;;;;2.60;2.30;;;;;;;;;;5059173;28;20206;-84
2022/05/18 03:57:55;;;;;;;1.63;1.52;;;;;;;;;;5058269;28;20221;-85
2022/05/18 04:00:23;;;;;;;1.40;1.30;;;;;;;;;;5058799;28;20226;-81
2022/05/18 04:02:51;;;;;;;1.73;1.63;;;;;;;;;;5059448;28;20205;-82
2022/05/18 04:05:20;;;;;;;2.42;1.67;;;;;;;;;;5058388;28;20671;-84
2022/05/18 04:07:47;;;;;;;1.30;1.30;;;;;;;;;;5058813;28;20229;-87
2022/05/18 04:10:17;;;;;;;1.23;1.23;;;;;;;;;;5059050;28;20232;-83
2022/05/18 04:12:45;;;;;;;1.20;1.10;;;;;;;;;;5058668;28;20200;-84
2022/05/18 04:15:16;;;;;;;1.35;1.25;;;;;;;;;;5059213;28;20263;-84
2022/05/18 04:17:45;;;;;;;1.30;1.30;;;;;;;;;;5058801;28;20202;-83
2022/05/18 04:20:13;;;;;;;1.13;1.02;;;;;;;;;;5059010;28;20239;-83
2022/05/18 04:22:41;;;;;;;1.17;1.13;;;;;;;;;;5059244;28;20251;-85
2022/05/18 04:25:10;;;;;;;2.85;1.60;;;;;;;;;;5059094;28;20208;-84
2022/05/18 04:27:38;;;;;;;2.45;2.20;;;;;;;;;;5058990;28;20193;-83
2022/05/18 04:30:08;;;;;;;1.50;1.40;;;;;;;;;;5057194;28;20618;-87
2022/05/18 04:32:38;;;;;;;1.52;1.42;;;;;;;;;;5055297;28;20210;-84
2022/05/18 04:35:06;;;;;;;1.98;1.80;;;;;;;;;;5058169;28;20201;-86
2022/05/18 04:37:34;;;;;;;1.52;1.42;;;;;;;;;;5057235;28;20569;-86
2022/05/18 04:40:01;;;;;;;2.45;1.80;;;;;;;;;;5058921;28;20899;-87
2022/05/18 04:42:28;;;;;;;1.90;1.80;;;;;;;;;;5057556;28;20280;-85
2022/05/18 04:44:57;;;;;;;2.45;2.25;;;;;;;;;;5055516;28;20650;-84
2022/05/18 04:47:26;;;;;;;2.33;2.13;;;;;;;;;;5057733;28;20650;-84
2022/05/18 04:49:53;;;;;;;2.83;1.95;;;;;;;;;;5057995;28;20218;-82
2022/05/18 04:52:21;;;;;;;1.95;1.85;;;;;;;;;;5057557;28;20202;-82
2022/05/18 04:54:49;;;;;;;3.03;2.22;;;;;;;;;;5057134;28;20204;-84
2022/05/18 04:57:18;;;;;;;2.47;2.28;;;;;;;;;;5057990;28;20588;-82
2022/05/18 04:59:45;;;;;;;2.42;2.20;;;;;;;;;;5058016;28;20218;-82
2022/05/18 05:02:14;;;;;;;3.17;1.98;;;;;;;;;;5056969;28;20205;-85
2022/05/18 05:04:42;;;;;;;2.17;2.08;;;;;;;;;;5056028;28;20202;-85
2022/05/18 05:07:09;;;;;;;1.67;1.58;;;;;;;;;;5056854;28;20658;-85
2022/05/18 05:09:38;;;;;;;1.20;1.20;;;;;;;;;;5055743;28;20208;-85
2022/05/18 05:12:07;;;;;;;1.48;1.42;;;;;;;;;;5054642;28;20201;-84
2022/05/18 05:14:38;;;;;;;1.50;1.40;;;;;;;;;;5056385;28;20656;-83
2022/05/18 05:17:06;;;;;;;2.55;2.22;;;;;;;;;;5056197;28;20205;-82
2022/05/18 05:19:37;;;;;;;1.60;1.50;;;;;;;;;;5056589;28;20194;-81
2022/05/18 05:22:05;;;;;;;6.82;2.50;;;;;;;;;;5057192;28;20635;-81
2022/05/18 05:24:33;;;;;;;2.10;1.98;;;;;;;;;;5056832;28;20193;-81
2022/05/18 05:27:00;;;;;;;2.65;2.05;;;;;;;;;;5056934;28;20216;-81
2022/05/18 05:29:28;;;;;;;2.25;2.05;;;;;;;;;;5056216;28;20202;-82
2022/05/18 05:31:55;;;;;;;2.72;2.53;;;;;;;;;;5056296;28;20212;-81
2022/05/18 05:34:22;;;;;;;2.38;2.00;;;;;;;;;;5055923;28;20673;-81
2022/05/18 05:36:51;;;;;;;2.45;2.25;;;;;;;;;;5056423;28;20604;-81
2022/05/18 05:39:20;;;;;;;3.75;2.63;;;;;;;;;;5056283;28;20225;-81
2022/05/18 05:41:47;;;;;;;2.63;2.25;;;;;;;;;;5056729;28;20288;-81
2022/05/18 05:44:15;;;;;;;2.42;2.22;;;;;;;;;;5056302;28;20201;-79
2022/05/18 05:46:42;;;;;;;4.63;2.28;;;;;;;;;;5056558;28;20208;-80
2022/05/18 05:49:12;;;;;;;3.35;2.65;;;;;;;;;;5056235;28;20205;-81
2022/05/18 05:51:40;;;;;;;3.75;3.03;;;;;;;;;;5056214;28;20229;-80
2022/05/18 05:54:09;;;;;;;3.03;2.72;;;;;;;;;;5055805;28;20201;-81
2022/05/18 05:56:36;;;;;;;3.35;3.05;;;;;;;;;;5055947;28;20260;-81
2022/05/18 05:59:03;;;;;;;4.55;3.47;;;;;;;;;;5055875;28;20222;-80
2022/05/18 06:01:30;;;;;;;3.97;2.60;;;;;;;;;;5055740;28;20224;-80
2022/05/18 06:03:58;;;;;;;3.65;2.88;;;;;;;;;;5056399;28;20610;-81
2022/05/18 06:06:25;;;;;;;2.97;2.65;;;;;;;;;;5055908;28;20209;-80
2022/05/18 06:08:52;;;;;;;2.58;2.17;;;;;;;;;;5056039;28;20197;-81
2022/05/18 06:11:21;;;;;;;2.88;2.33;;;;;;;;;;5056550;28;20225;-80
2022/05/18 06:13:48;;;;;;;2.80;2.28;;;;;;;;;;5055978;28;20201;-80
2022/05/18 06:16:15;;;;;;;2.72;2.53;;;;;;;;;;5056351;28;20214;-79
2022/05/18 06:18:43;;;;;;;3.30;2.55;;;;;;;;;;5056079;28;20221;-80
2022/05/18 06:21:10;;;;;;;2.30;2.03;;;;;;;;;;5056604;28;20221;-80
2022/05/18 06:23:37;;;;;;;2.17;1.98;;;;;;;;;;5057021;28;20228;-81
2022/05/18 06:26:06;;;;;;;3.45;1.95;;;;;;;;;;5056830;28;20256;-80
2022/05/18 06:28:36;;;;;;;2.00;1.85;;;;;;;;;;5056489;28;20552;-80
2022/05/18 06:31:04;;;;;;;2.47;2.13;;;;;;;;;;5056213;28;20221;-80
2022/05/18 06:33:31;;;;;;;2.70;2.50;;;;;;;;;;5056059;28;20218;-79
2022/05/18 06:35:58;;;;;;;4.45;2.40;;;;;;;;;;5055980;28;20646;-79
2022/05/18 06:38:26;;;;;;;2.97;2.55;;;;;;;;;;5055605;28;20225;-80
2022/05/18 06:43:40;;;;;;;2.75;2.25;;;;;;;;;;5056490;28;20228;-80
2022/05/18 06:46:08;;;;;;;2.00;1.70;;;;;;;;;;5056950;28;20214;-80
2022/05/18 06:48:35;;;;;;;3.28;1.90;;;;;;;;;;5056136;28;20202;-80
2022/05/18 06:51:02;;;;;;;3.05;2.58;;;;;;;;;;5056544;28;20222;-80
2022/05/18 06:53:29;;;;;;;2.50;2.30;;;;;;;;;;5055980;28;20205;-81
2022/05/18 06:55:57;;;;;;;4.18;2.42;;;;;;;;;;5056331;28;20225;-81
2022/05/18 06:58:24;;;;;;;3.50;2.22;;;;;;;;;;5056253;28;20328;-81
2022/05/18 07:00:55;;;;;;;4.40;2.60;;;;;;;;;;5055107;28;20229;-81
2022/05/18 07:03:23;;;;;;;5.15;2.60;;;;;;;;;;5056523;28;20186;-81
2022/05/18 07:05:50;;;;;;;2.10;2.00;;;;;;;;;;5056088;28;20570;-81
2022/05/18 07:08:18;;;;;;;2.70;2.50;;;;;;;;;;5055588;28;20212;-81
2022/05/18 07:10:45;;;;;;;2.70;2.50;;;;;;;;;;5058523;28;20229;-81
2022/05/18 07:13:17;;;;;;;3.28;2.20;;;;;;;;;;5054133;28;20209;-82
2022/05/18 07:15:45;;;;;;;2.50;2.30;;;;;;;;;;5061272;28;20213;-83
2022/05/18 07:18:14;;;;;;;2.78;2.45;;;;;;;;;;5061284;28;20244;-83
2022/05/18 07:20:41;;;;;;;2.88;2.55;;;;;;;;;;5059419;28;20226;-82
2022/05/18 07:23:09;;;;;;;3.08;2.88;;;;;;;;;;5059900;28;20213;-83
2022/05/18 07:25:37;;;;;;;3.25;2.75;;;;;;;;;;5059106;28;20649;-83
2022/05/18 07:28:05;;;;;;;7.10;4.00;;;;;;;;;;5058972;28;20205;-83
2022/05/18 07:30:32;;;;;;;3.25;2.83;;;;;;;;;;5060468;28;20578;-83
2022/05/18 07:33:00;;;;;;;2.70;2.50;;;;;;;;;;5060262;28;20220;-81
2022/05/18 07:35:29;;;;;;;2.85;2.40;;;;;;;;;;5060301;28;20658;-82
2022/05/18 07:37:58;;;;;;;2.38;2.20;;;;;;;;;;5059788;28;20676;-82
2022/05/18 07:40:26;;;;;;;3.45;2.67;;;;;;;;;;5059827;28;20603;-82
2022/05/18 07:42:56;;;;;;;3.75;1.80;;;;;;;;;;5061360;28;20236;-82
2022/05/18 07:45:26;;;;;;;2.42;2.22;;;;;;;;;;5060970;28;20206;-82
2022/05/18 07:47:55;;;;;;;2.47;1.90;;;;;;;;;;5062406;28;20209;-82
2022/05/18 07:50:26;;;;;;;2.15;1.98;;;;;;;;;;5063607;28;20233;-83
2022/05/18 07:52:59;;;;;;;2.67;2.47;;;;;;;;;;5065721;28;20736;-83
2022/05/18 07:55:28;;;;;;;1.92;1.80;;;;;;;;;;5065407;28;20580;-82
2022/05/18 07:57:57;;;;;;;1.80;1.70;;;;;;;;;;5064133;28;20247;-82
2022/05/18 08:00:27;;;;;;;6.75;2.78;;;;;;;;;;5063865;28;20674;-82
2022/05/18 08:02:55;;;;;;;2.40;2.20;;;;;;;;;;5063615;28;20650;-82
2022/05/18 08:05:24;;;;;;;2.03;1.90;;;;;;;;;;5063404;28;20210;-81
2022/05/18 08:07:56;;;;;;;2.55;2.28;;;;;;;;;;5063898;28;20209;-81
2022/05/18 08:15:59;;;;;;;2.70;2.50;;;;;;;;;;5064638;28;20208;-83
2022/05/18 08:18:29;;;;;;;2.50;1.90;;;;;;;;;;5064683;28;20733;-82
2022/05/18 08:20:58;;;;;;;2.55;2.38;;;;;;;;;;5064019;28;20254;-82
2022/05/18 08:23:29;;;;;;;2.00;1.90;;;;;;;;;;5063100;28;20263;-82
2022/05/18 08:25:58;;;;;;;2.38;2.22;;;;;;;;;;5064802;28;20228;-82
2022/05/18 08:28:29;;;;;;;1.85;1.58;;;;;;;;;;5064805;28;20202;-82
2022/05/18 08:30:58;;;;;;;2.70;1.98;;;;;;;;;;5064541;28;20296;-82
2022/05/18 08:33:31;;;;;;;2.10;1.92;;;;;;;;;;5065703;28;20580;-82
2022/05/18 08:36:01;;;;;;;2.05;1.95;;;;;;;;;;5065363;28;20228;-82
2022/05/18 08:38:32;;;;;;;1.70;1.60;;;;;;;;;;5065913;28;20269;-82
2022/05/18 08:41:08;;;;;;;2.63;2.17;;;;;;;;;;5064335;28;20225;-83
2022/05/18 08:43:41;;;;;;;4.00;2.25;;;;;;;;;;5057907;28;20212;-82
2022/05/18 08:46:17;;;;;;;1.65;1.52;;;;;;;;;;5058585;28;20218;-82
2022/05/18 08:48:51;;;;;;;1.92;1.83;;;;;;;;;;5063414;28;20213;-82
2022/05/18 08:51:39;;;;;;;1.90;1.80;;;;;;;;;;5063096;28;20219;-82
2022/05/18 08:54:43;;;;;;;1.88;1.73;;;;;;;;;;5063382;28;20217;-83
2022/05/18 08:57:19;;;;;;;2.20;2.00;;;;;;;;;;5048575;28;20217;-83
2022/05/18 08:59:52;;;;;;;2.78;1.70;;;;;;;;;;5061374;28;20221;-82
2022/05/18 09:02:25;;;;;;;2.10;1.90;;;;;;;;;;5062693;28;20202;-83
2022/05/18 09:04:57;;;;;;;2.15;2.05;;;;;;;;;;5062904;28;20400;-83
2022/05/18 09:07:32;;;;;;;3.85;1.85;;;;;;;;;;5057676;28;20224;-82
2022/05/18 09:10:16;;;;;;;2.30;2.10;;;;;;;;;;5063295;28;20227;-83
2022/05/18 09:12:48;;;;;;;1.92;1.83;;;;;;;;;;5063665;28;20259;-83
2022/05/18 09:15:23;;;;;;;2.53;2.30;;;;;;;;;;5063419;28;20206;-83
2022/05/18 09:17:57;;;;;;;2.45;2.03;;;;;;;;;;5063266;28;20275;-82
2022/05/18 09:20:30;;;;;;;2.55;2.20;;;;;;;;;;5064181;28;20225;-82
2022/05/18 09:23:40;;;;;;;1.83;1.73;;;;;;;;;;5057277;28;20201;-82
2022/05/18 09:26:28;;;;;;;1.95;1.85;;;;;;;;;;5063697;28;20738;-83
2022/05/18 09:29:06;;;;;;;3.83;2.25;;;;;;;;;;5061172;28;20205;-83
2022/05/18 09:31:55;;;;;;;4.13;2.22;;;;;;;;;;5059766;28;20228;-83
2022/05/18 09:34:51;;;;;;;2.25;2.10;;;;;;;;;;5063350;28;20206;-83
2022/05/18 09:37:32;;;;;;;2.20;1.88;;;;;;;;;;5062966;28;20216;-82
2022/05/18 09:40:08;;;;;;;2.40;2.20;;;;;;;;;;5063736;28;20229;-83
2022/05/18 09:42:50;;;;;;;2.10;2.00;;;;;;;;;;5063681;28;20209;-83
2022/05/18 09:45:23;;;;;;;1.88;1.77;;;;;;;;;;5064504;28;20259;-82
2022/05/18 09:47:58;;;;;;;1.80;1.70;;;;;;;;;;5064492;28;20201;-83
2022/05/18 09:50:28;;;;;;;2.00;1.80;;;;;;;;;;5063283;28;20225;-83
2022/05/18 09:52:57;;;;;;;2.40;2.20;;;;;;;;;;5064811;28;20216;-83
2022/05/18 09:55:29;;;;;;;1.98;1.83;;;;;;;;;;5065095;28;20197;-82
2022/05/18 09:58:04;;;;;;;2.30;2.10;;;;;;;;;;5065019;28;20243;-83
2022/05/18 10:00:38;;;;;;;2.72;2.53;;;;;;;;;;5065472;28;20224;-83
2022/05/18 10:08:53;;;;;;;3.80;2.40;;;;;;;;;;5057766;28;20567;-83
2022/05/18 10:11:25;;;;;;;2.88;2.67;;;;;;;;;;5065516;28;20740;-83
2022/05/18 10:14:07;;;;;;;1.73;1.63;;;;;;;;;;5065297;28;20650;-83
2022/05/18 10:16:44;;;;;;;2.00;1.90;;;;;;;;;;5059994;28;20672;-82
2022/05/18 10:19:21;;;;;;;2.08;1.98;;;;;;;;;;5065833;28;20220;-84
2022/05/18 10:21:56;;;;;;;2.08;1.98;;;;;;;;;;5064856;28;20210;-83
2022/05/18 10:24:39;;;;;;;2.17;1.98;;;;;;;;;;5066497;28;20216;-83
2022/05/18 10:27:20;;;;;;;1.90;1.80;;;;;;;;;;5059651;28;20198;-82
2022/05/18 10:30:10;;;;;;;1.92;1.83;;;;;;;;;;5059043;28;20289;-83
2022/05/18 10:32:55;;;;;;;2.63;2.10;;;;;;;;;;5064288;28;20209;-83
2022/05/18 10:35:47;;;;;;;1.75;1.65;;;;;;;;;;5065367;28;20221;-84
2022/05/18 10:38:24;;;;;;;1.70;1.60;;;;;;;;;;5062454;28;20234;-82
2022/05/18 10:40:57;;;;;;;1.73;1.63;;;;;;;;;;5063563;28;20232;-84
2022/05/18 10:43:35;;;;;;;1.50;1.40;;;;;;;;;;5063160;28;20730;-84
2022/05/18 10:46:13;;;;;;;1.48;1.40;;;;;;;;;;5057936;28;20726;-83
2022/05/18 10:48:44;;;;;;;1.85;1.75;;;;;;;;;;5065082;28;20228;-84
2022/05/18 10:51:14;;;;;;;1.92;1.83;;;;;;;;;;5063994;28;20218;-83
2022/05/18 10:53:44;;;;;;;2.50;2.30;;;;;;;;;;5063940;28;20210;-84
2022/05/18 10:56:15;;;;;;;1.85;1.75;;;;;;;;;;5063997;28;20557;-84
2022/05/18 10:58:45;;;;;;;2.08;1.77;;;;;;;;;;5064252;28;20609;-84
2022/05/18 11:01:20;;;;;;;1.77;1.63;;;;;;;;;;5061725;28;20721;-84
2022/05/18 11:03:56;;;;;;;1.45;1.42;;;;;;;;;;5064213;28;20205;-84
2022/05/18 11:06:28;;;;;;;2.08;1.90;;;;;;;;;;5064797;28;20266;-83
2022/05/18 11:09:00;;;;;;;1.83;1.58;;;;;;;;;;5056732;28;20208;-83
2022/05/18 11:11:38;;;;;;;1.90;1.80;;;;;;;;;;5055783;28;20259;-84
2022/05/18 11:14:15;;;;;;;1.58;1.48;;;;;;;;;;5065408;28;20205;-82
2022/05/18 11:16:52;;;;;;;1.55;1.45;;;;;;;;;;5063233;28;20270;-84
2022/05/18 11:19:32;;;;;;;1.65;1.55;;;;;;;;;;5063888;28;20205;-84
2022/05/18 11:22:23;;;;;;;1.75;1.65;;;;;;;;;;5065269;28;20237;-84
2022/05/18 11:25:06;;;;;;;1.42;1.33;;;;;;;;;;5064229;28;20212;-83
2022/05/18 11:27:40;;;;;;;2.00;1.88;;;;;;;;;;5066726;28;20209;-84
2022/05/18 11:30:10;;;;;;;1.88;1.77;;;;;;;;;;5068138;28;20230;-82
2022/05/18 11:32:55;;;;;;;2.03;1.60;;;;;;;;;;5067877;28;20213;-82
2022/05/18 11:35:39;;;;;;;1.70;1.60;;;;;;;;;;5067343;28;20216;-81
2022/05/18 11:39:04;;;;;;;1.48;1.38;;;;;;;;;;5067212;28;20216;-84
2022/05/18 11:41:51;;;;;;;1.50;1.40;;;;;;;;;;5028535;28;20230;-84
2022/05/18 11:44:25;;;;;;;1.50;1.40;;;;;;;;;;5068039;28;20232;-83
2022/05/18 11:47:36;;;;;;;1.38;1.30;;;;;;;;;;5068492;28;20209;-82
2022/05/18 11:50:18;;;;;;;1.63;1.52;;;;;;;;;;5005864;28;20231;-82
2022/05/18 11:52:57;;;;;;;1.20;1.20;;;;;;;;;;5006260;28;20211;-82
2022/05/18 11:55:37;;;;;;;1.25;1.25;;;;;;;;;;5048786;28;20658;-82
2022/05/18 11:58:17;;;;;;;1.50;1.40;;;;;;;;;;5067927;28;20669;-82
2022/05/18 12:00:56;;;;;;;2.25;2.05;;;;;;;;;;5067944;28;20225;-82
2022/05/18 12:03:42;;;;;;;2.35;1.45;;;;;;;;;;5068615;28;20212;-82
2022/05/18 12:06:29;;;;;;;1.83;1.73;;;;;;;;;;5067120;28;20217;-82
2022/05/18 12:09:20;;;;;;;1.20;1.20;;;;;;;;;;5062710;28;20210;-83
2022/05/18 12:11:58;;;;;;;1.10;1.10;;;;;;;;;;5058447;28;20205;-82
2022/05/18 12:14:37;;;;;;;1.73;1.63;;;;;;;;;;5067995;28;20201;-81
2022/05/18 12:17:08;;;;;;;1.35;1.25;;;;;;;;;;5067397;28;20209;-81
2022/05/18 12:19:42;;;;;;;1.50;1.40;;;;;;;;;;5068711;28;20208;-80
2022/05/18 12:22:15;;;;;;;1.40;1.30;;;;;;;;;;5067437;28;20744;-83
2022/05/18 12:24:45;;;;;;;1.60;1.50;;;;;;;;;;5068588;28;20232;-82
2022/05/18 12:27:16;;;;;;;1.42;1.33;;;;;;;;;;5067859;28;20212;-85
2022/05/18 12:29:43;;;;;;;1.40;1.30;;;;;;;;;;5067184;28;20267;-83
2022/05/18 12:32:13;;;;;;;1.30;1.20;;;;;;;;;;5067689;28;20213;-82
2022/05/18 12:34:47;;;;;;;1.35;1.25;;;;;;;;;;5067042;28;20205;-82
2022/05/18 12:37:34;;;;;;;1.17;1.17;;;;;;;;;;5068759;28;20209;-83
2022/05/18 12:40:31;;;;;;;1.27;1.23;;;;;;;;;;5061978;28;20225;-82
2022/05/18 12:43:04;;;;;;;2.03;1.83;;;;;;;;;;5068119;28;20229;-82
2022/05/18 12:45:40;;;;;;;1.73;1.65;;;;;;;;;;5069397;28;20205;-82
2022/05/18 12:48:19;;;;;;;1.67;1.58;;;;;;;;;;5067844;28;20209;-82
2022/05/18 12:51:02;;;;;;;1.30;1.30;;;;;;;;;;5068661;28;20232;-82
2022/05/18 12:53:57;;;;;;;1.88;1.77;;;;;;;;;;5068423;28;20212;-82
2022/05/18 12:56:43;;;;;;;1.50;1.33;;;;;;;;;;5061753;28;20206;-82
2022/05/18 12:59:13;;;;;;;1.35;1.27;;;;;;;;;;5064355;28;20212;-83
2022/05/18 13:01:43;;;;;;;1.30;1.27;;;;;;;;;;5068207;28;20237;-82
2022/05/18 13:04:41;;;;;;;2.00;1.60;;;;;;;;;;5069174;28;20213;-82
2022/05/18 13:07:27;;;;;;;1.13;1.10;;;;;;;;;;5061607;28;20197;-82
2022/05/18 13:10:16;;;;;;;1.23;1.20;;;;;;;;;;5067122;28;20261;-81
2022/05/18 13:12:53;;;;;;;1.45;1.35;;;;;;;;;;5061217;28;20212;-81
2022/05/18 13:15:39;;;;;;;0.95;0.95;;;;;;;;;;5048444;28;20209;-80
2022/05/18 13:18:14;;;;;;;2.47;1.60;;;;;;;;;;5059667;28;20672;-80
2022/05/18 13:20:55;;;;;;;1.30;1.20;;;;;;;;;;5060087;28;20231;-81
2022/05/18 13:23:34;;;;;;;1.30;1.20;;;;;;;;;;5059427;28;20674;-81
2022/05/18 13:26:24;;;;;;;1.40;1.30;;;;;;;;;;5058465;28;20202;-83
2022/05/18 13:28:54;;;;;;;4.15;3.63;;;;;;;;;;5053301;28;20208;-83
2022/05/18 13:31:22;;;;;;;3.30;2.78;;;;;;;;;;5059189;28;20272;-82
2022/05/18 13:33:55;;;;;;;1.77;1.67;;;;;;;;;;5058615;28;20213;-84
2022/05/18 13:36:46;;;;;;;2.50;1.67;;;;;;;;;;5058183;28;20210;-82
2022/05/18 13:39:18;;;;;;;1.90;1.80;;;;;;;;;;5053183;28;20202;-84
2022/05/18 13:41:48;;;;;;;1.70;1.60;;;;;;;;;;5057731;28;20279;-83
2022/05/18 13:44:16;;;;;;;1.70;1.60;;;;;;;;;;5058981;28;20604;-83
2022/05/18 13:46:44;;;;;;;1.88;1.63;;;;;;;;;;5055845;28;20570;-84
2022/05/18 13:49:16;;;;;;;1.75;1.65;;;;;;;;;;5058732;28;20236;-84
2022/05/18 13:51:48;;;;;;;1.02;1.02;;;;;;;;;;5057089;28;20231;-83
2022/05/18 13:54:18;;;;;;;1.40;1.30;;;;;;;;;;5059750;28;20210;-83
2022/05/18 13:56:50;;;;;;;1.20;1.20;;;;;;;;;;5058564;28;20200;-83
2022/05/18 13:59:21;;;;;;;1.30;1.20;;;;;;;;;;5058417;28;20212;-82
2022/05/18 14:01:52;;;;;;;1.45;1.35;;;;;;;;;;5058633;28;20275;-83
2022/05/18 14:04:24;;;;;;;2.05;1.73;;;;;;;;;;5058086;28;20208;-83
2022/05/18 14:06:53;;;;;;;1.63;1.50;;;;;;;;;;5058218;28;20232;-83
2022/05/18 14:09:22;;;;;;;1.73;1.63;;;;;;;;;;5059975;28;20210;-83
2022/05/18 14:11:57;;;;;;;1.73;1.50;;;;;;;;;;5058687;28;20315;-83
2022/05/18 14:14:28;;;;;;;1.30;1.20;;;;;;;;;;5058530;28;20227;-83
2022/05/18 14:16:59;;;;;;;2.08;1.73;;;;;;;;;;5058606;28;20646;-83
2022/05/18 14:19:35;;;;;;;1.30;1.20;;;;;;;;;;5059381;28;20256;-83
2022/05/18 14:22:03;;;;;;;1.15;1.13;;;;;;;;;;5058420;28;20216;-82
2022/05/18 14:24:40;;;;;;;1.33;1.30;;;;;;;;;;5058391;28;20209;-83
2022/05/18 14:27:14;;;;;;;1.40;1.30;;;;;;;;;;5059590;28;20205;-83
2022/05/18 14:29:44;;;;;;;1.27;1.17;;;;;;;;;;5056679;28;20213;-83
2022/05/18 14:32:15;;;;;;;1.35;1.33;;;;;;;;;;5057938;28;20213;-82
2022/05/18 14:34:46;;;;;;;1.55;1.45;;;;;;;;;;5058867;28;20212;-82
2022/05/18 14:37:23;;;;;;;1.65;1.50;;;;;;;;;;5052468;28;20229;-83
2022/05/18 14:39:50;;;;;;;1.30;1.30;;;;;;;;;;5053921;28;20236;-82
2022/05/18 14:42:20;;;;;;;1.17;1.17;;;;;;;;;;5056523;28;20205;-84
2022/05/18 14:44:54;;;;;;;1.40;1.35;;;;;;;;;;5058550;28;20205;-83
2022/05/18 14:47:30;;;;;;;1.40;1.30;;;;;;;;;;5056264;28;20216;-83
2022/05/18 14:50:10;;;;;;;1.23;1.23;;;;;;;;;;5056395;28;20224;-83
2022/05/18 14:52:42;;;;;;;1.50;1.40;;;;;;;;;;5059893;28;20230;-82
2022/05/18 14:55:26;;;;;;;1.55;1.40;;;;;;;;;;5056878;28;20201;-81
2022/05/18 14:57:54;;;;;;;1.13;1.13;;;;;;;;;;5060680;28;20198;-82
2022/05/18 15:00:35;;;;;;;1.85;1.75;;;;;;;;;;5063274;28;20225;-83
2022/05/18 15:03:07;;;;;;;1.90;1.80;;;;;;;;;;5063796;28;20210;-82
2022/05/18 15:05:37;;;;;;;1.80;1.70;;;;;;;;;;5064498;28;20192;-83
2022/05/18 15:08:10;;;;;;;3.35;1.48;;;;;;;;;;5062235;28;20251;-83
2022/05/18 15:10:49;;;;;;;1.50;1.40;;;;;;;;;;5062087;28;20224;-83
2022/05/18 15:13:21;;;;;;;1.33;1.23;;;;;;;;;;5049914;28;20254;-83
2022/05/18 15:15:55;;;;;;;1.40;1.40;;;;;;;;;;5061969;28;20229;-82
2022/05/18 15:18:29;;;;;;;1.50;1.40;;;;;;;;;;5061784;28;20209;-83
2022/05/18 15:20:58;;;;;;;2.17;1.95;;;;;;;;;;5061327;28;20229;-83
2022/05/18 15:23:40;;;;;;;1.23;1.23;;;;;;;;;;5060302;28;20217;-82
2022/05/18 15:26:17;;;;;;;1.77;1.67;;;;;;;;;;5061769;28;20206;-81
2022/05/18 15:28:48;;;;;;;1.80;1.45;;;;;;;;;;5062063;28;20205;-83
2022/05/18 15:31:19;;;;;;;1.48;1.38;;;;;;;;;;5058808;28;20225;-82
2022/05/18 15:33:52;;;;;;;1.25;1.23;;;;;;;;;;5073184;28;20205;-83